Time;durP1;ratioP1;P1;durP2;ratioP2;P2;SDS_P1;SDS_P2;PMS_P1;PMS_P2;Temp;Humidity;BMP_temperature;BMP_pressure;BME280_temperature;BME280_humidity;BME280_pressure;Samples;Min_cycle;Max_cycle;Signal;HPM_P1;HPM_P2
2020/12/01 00:01:22;;;;;;;14.77;2.60;;;;;;;7.11;58.80;100504.00;5044558;28;20399;-76
2020/12/01 00:03:48;;;;;;;10.48;2.78;;;;;;;7.31;58.38;100500.06;5023908;28;20098;-76
2020/12/01 00:06:14;;;;;;;8.18;2.72;;;;;;;7.29;58.47;100508.69;5029222;28;20098;-77
2020/12/01 00:08:40;;;;;;;12.50;3.05;;;;;;;7.13;58.62;100506.63;5051873;28;20039;-76
2020/12/01 00:11:07;;;;;;;15.65;4.20;;;;;;;7.38;58.42;100507.13;5032219;28;20032;-76
2020/12/01 00:13:34;;;;;;;13.13;2.40;;;;;;;7.35;57.93;100509.66;5050251;28;20402;-76
2020/12/01 00:16:00;;;;;;;13.95;2.28;;;;;;;7.53;57.66;100510.84;5024170;28;20033;-76
2020/12/01 00:18:26;;;;;;;9.35;1.25;;;;;;;7.12;58.28;100503.16;5069222;28;20439;-75
2020/12/01 00:20:52;;;;;;;6.65;1.27;;;;;;;7.30;58.37;100507.81;5059414;28;20044;-76
2020/12/01 00:23:18;;;;;;;5.00;1.23;;;;;;;6.96;58.98;100506.28;5026403;28;20637;-76
2020/12/01 00:25:45;;;;;;;11.05;1.25;;;;;;;7.23;58.53;100503.38;5035937;28;20119;-76
2020/12/01 00:28:10;;;;;;;8.27;1.15;;;;;;;7.54;57.69;100508.25;5032267;28;20044;-76
2020/12/01 00:30:37;;;;;;;5.97;1.33;;;;;;;7.60;57.35;100502.28;5051206;28;20606;-76
2020/12/01 00:33:02;;;;;;;6.15;1.17;;;;;;;7.35;57.75;100506.16;5030664;28;20515;-76
2020/12/01 00:35:30;;;;;;;5.78;0.82;;;;;;;7.05;58.97;100511.66;5033437;28;20084;-77
2020/12/01 00:37:56;;;;;;;6.43;1.13;;;;;;;7.37;57.72;100520.97;5049743;28;20047;-76
2020/12/01 00:40:23;;;;;;;5.38;1.40;;;;;;;7.59;57.41;100521.34;5030016;28;20452;-77
2020/12/01 00:42:52;;;;;;;5.72;1.00;;;;;;;7.59;57.07;100527.41;5035121;28;20036;-77
2020/12/01 00:45:18;;;;;;;4.68;1.00;;;;;;;7.76;56.61;100527.72;5054126;28;20621;-76
2020/12/01 00:47:44;;;;;;;8.98;1.20;;;;;;;6.91;58.84;100521.78;5043668;28;20456;-77
2020/12/01 00:50:14;;;;;;;3.42;1.30;;;;;;;7.36;57.61;100526.13;5049539;28;20055;-76
2020/12/01 00:52:39;;;;;;;6.90;0.75;;;;;;;7.37;57.28;100531.38;5032898;28;20036;-76
2020/12/01 00:55:06;;;;;;;7.70;1.48;;;;;;;7.84;56.36;100534.81;5044021;28;20040;-76
2020/12/01 00:57:32;;;;;;;8.57;1.02;;;;;;;7.78;56.49;100539.88;5051530;28;20407;-77
2020/12/01 00:59:57;;;;;;;7.30;1.73;;;;;;;7.44;57.25;100540.13;5035499;28;20036;-77
2020/12/01 01:02:23;;;;;;;9.57;1.40;;;;;;;7.77;56.69;100543.34;5034483;28;20460;-77
2020/12/01 01:04:50;;;;;;;6.97;1.40;;;;;;;7.50;57.24;100547.16;5042461;28;20035;-77
2020/12/01 01:07:18;;;;;;;7.72;1.10;;;;;;;7.24;57.73;100550.16;5031307;28;20034;-77
2020/12/01 01:09:44;;;;;;;5.22;1.20;;;;;;;7.78;56.35;100560.69;5038382;28;20040;-77
2020/12/01 01:12:10;;;;;;;5.38;1.10;;;;;;;7.47;56.90;100560.13;5052749;28;20086;-76
2020/12/01 01:14:37;;;;;;;5.90;0.82;;;;;;;7.24;57.38;100551.91;5024731;28;20037;-77
2020/12/01 01:17:03;;;;;;;9.63;1.42;;;;;;;7.54;57.23;100548.97;5017468;28;20052;-77
2020/12/01 01:19:29;;;;;;;5.72;1.10;;;;;;;7.58;57.09;100548.22;5039612;28;20040;-77
2020/12/01 01:21:54;;;;;;;4.38;0.90;;;;;;;7.52;57.32;100553.28;5050058;28;20853;-76
2020/12/01 01:24:20;;;;;;;6.50;1.08;;;;;;;7.53;57.01;100550.69;5033061;28;20163;-77
2020/12/01 01:26:50;;;;;;;4.70;1.20;;;;;;;7.51;57.16;100555.00;5046602;28;20032;-76
2020/12/01 01:29:18;;;;;;;8.02;1.05;;;;;;;7.55;57.16;100556.81;5023966;28;20121;-76
2020/12/01 01:31:43;;;;;;;4.00;0.73;;;;;;;7.54;57.32;100552.47;5058062;28;20133;-77
2020/12/01 01:34:10;;;;;;;5.45;1.08;;;;;;;7.70;56.70;100551.03;5061698;28;20044;-77
2020/12/01 01:36:38;;;;;;;14.43;1.10;;;;;;;7.53;57.07;100570.66;5046196;28;20132;-78
2020/12/01 01:39:05;;;;;;;6.68;1.02;;;;;;;7.72;56.65;100573.59;5031700;28;20673;-77
2020/12/01 01:41:37;;;;;;;3.13;0.82;;;;;;;7.33;57.12;100568.53;5044251;28;20063;-76
2020/12/01 01:44:15;;;;;;;5.60;1.00;;;;;;;7.60;56.85;100570.78;5029264;28;20041;-76
2020/12/01 01:46:44;;;;;;;5.95;1.10;;;;;;;7.43;57.12;100577.41;5048286;28;20035;-76
2020/12/01 01:49:14;;;;;;;5.68;0.75;;;;;;;7.64;57.17;100588.19;5044405;28;20530;-76
2020/12/01 01:51:47;;;;;;;8.90;1.30;;;;;;;7.43;57.42;100585.19;5027393;28;20148;-76
2020/12/01 01:54:13;;;;;;;;;;;;;;;7.78;56.46;100594.50;5046096;28;20464;-77
2020/12/01 01:56:44;;;;;;;8.90;1.10;;;;;;;7.79;56.35;100583.28;5044255;28;20321;-77
2020/12/01 01:59:13;;;;;;;7.25;0.88;;;;;;;7.79;56.73;100585.88;5028899;28;20398;-77
2020/12/01 02:01:39;;;;;;;8.23;1.20;;;;;;;7.78;56.49;100591.91;5029310;28;20482;-77
2020/12/01 02:04:08;;;;;;;2.88;0.88;;;;;;;7.67;56.47;100580.47;5029410;28;20033;-77
2020/12/01 02:07:02;;;;;;;6.20;0.70;;;;;;;8.15;55.79;100589.97;5032168;28;20159;-76
2020/12/01 02:09:33;;;;;;;9.45;1.15;;;;;;;7.73;56.51;100583.16;5042647;28;20036;-75
2020/12/01 02:12:02;;;;;;;8.27;0.90;;;;;;;7.47;57.50;100586.13;5042632;28;20074;-76
2020/12/01 02:14:55;;;;;;;5.75;1.27;;;;;;;7.94;56.46;100597.41;5045391;28;20052;-76
2020/12/01 02:17:23;;;;;;;11.80;1.08;;;;;;;7.84;56.00;100597.25;5024182;28;20103;-76
2020/12/01 02:19:53;;;;;;;5.28;0.85;;;;;;;7.91;56.33;100599.94;5021680;28;20042;-77
2020/12/01 02:22:21;;;;;;;5.93;0.80;;;;;;;7.75;56.51;100599.69;5017298;28;20042;-76
2020/12/01 02:24:50;;;;;;;11.55;1.25;;;;;;;7.57;57.42;100601.94;5012986;28;20029;-77
2020/12/01 02:27:19;;;;;;;8.75;1.00;;;;;;;7.34;57.97;100609.25;5022837;28;20125;-77
2020/12/01 02:29:49;;;;;;;5.28;1.00;;;;;;;7.83;56.56;100613.69;5006933;28;20053;-77
2020/12/01 02:32:15;;;;;;;6.30;1.13;;;;;;;8.10;55.49;100625.44;5034542;28;20021;-77
2020/12/01 02:34:44;;;;;;;8.35;2.13;;;;;;;8.00;55.95;100623.53;5007284;28;20029;-76
2020/12/01 02:37:13;;;;;;;8.77;1.45;;;;;;;7.94;56.17;100623.41;5005665;28;20049;-77
2020/12/01 02:39:39;;;;;;;4.03;1.42;;;;;;;7.33;57.67;100630.06;5023043;28;20037;-77
2020/12/01 02:42:09;;;;;;;8.32;1.27;;;;;;;7.65;56.83;100621.16;5005866;28;20075;-77
2020/12/01 02:44:35;;;;;;;7.93;1.50;;;;;;;7.94;55.99;100621.69;5023396;28;20033;-77
2020/12/01 02:47:04;;;;;;;11.38;2.00;;;;;;;7.59;57.13;100630.56;5023860;28;20029;-77
2020/12/01 02:49:34;;;;;;;7.15;1.00;;;;;;;7.63;56.97;100624.56;5009353;28;20030;-77
2020/12/01 02:52:00;;;;;;;7.72;0.98;;;;;;;7.64;56.92;100619.41;5003665;28;20440;-78
2020/12/01 02:54:26;;;;;;;5.95;1.23;;;;;;;7.77;57.01;100623.97;5018167;28;20033;-77
2020/12/01 02:56:52;;;;;;;8.07;0.98;;;;;;;7.73;56.59;100626.47;5021705;28;20445;-76
2020/12/01 02:59:18;;;;;;;5.15;0.80;;;;;;;7.89;56.29;100626.81;5024295;28;20033;-76
2020/12/01 03:01:44;;;;;;;5.45;0.82;;;;;;;7.73;56.96;100627.38;5014014;28;20037;-77
2020/12/01 03:04:10;;;;;;;6.25;0.82;;;;;;;7.50;57.61;100627.78;5013402;28;20037;-76
2020/12/01 03:06:36;;;;;;;4.93;1.10;;;;;;;7.94;56.10;100626.91;5032303;28;20029;-76
2020/12/01 03:09:05;;;;;;;9.70;1.08;;;;;;;8.04;55.81;100633.13;5020722;28;20056;-77
2020/12/01 03:11:30;;;;;;;7.15;1.02;;;;;;;8.04;55.52;100638.34;5016449;28;20113;-77
2020/12/01 03:13:56;;;;;;;6.70;1.10;;;;;;;7.85;56.32;100631.94;5024226;28;20140;-77
2020/12/01 03:16:22;;;;;;;14.07;1.83;;;;;;;7.87;56.02;100636.31;5021055;28;20045;-77
2020/12/01 03:18:47;;;;;;;8.45;1.02;;;;;;;7.74;56.17;100636.94;5027560;28;20746;-76
2020/12/01 03:21:15;;;;;;;2.90;0.73;;;;;;;7.83;56.23;100634.50;5028430;28;20175;-77
2020/12/01 03:23:42;;;;;;;4.93;0.73;;;;;;;8.06;55.81;100639.22;5027785;28;20059;-76
2020/12/01 03:26:10;;;;;;;4.75;0.90;;;;;;;7.95;55.93;100636.47;5038430;28;20029;-77
2020/12/01 03:28:36;;;;;;;5.95;1.35;;;;;;;7.66;57.06;100640.25;5038672;28;20056;-76
2020/12/01 03:31:05;;;;;;;7.10;1.40;;;;;;;7.73;56.80;100629.97;5034117;28;20150;-76
2020/12/01 03:33:31;;;;;;;10.20;1.90;;;;;;;7.63;57.05;100633.22;5049632;28;20036;-76
2020/12/01 03:35:56;;;;;;;6.45;0.90;;;;;;;7.93;56.37;100637.25;5027633;28;20420;-76
2020/12/01 03:38:22;;;;;;;10.20;0.85;;;;;;;7.66;56.74;100633.31;5031565;28;20033;-75
2020/12/01 03:40:48;;;;;;;5.78;1.10;;;;;;;7.97;55.95;100636.47;5041061;28;20036;-76
2020/12/01 03:43:15;;;;;;;6.15;1.48;;;;;;;7.78;56.16;100643.94;5049936;28;20082;-77
2020/12/01 03:45:40;;;;;;;6.30;1.13;;;;;;;7.95;56.01;100644.25;5024327;28;20523;-76
2020/12/01 03:48:06;;;;;;;4.45;0.98;;;;;;;7.33;57.99;100643.03;5053968;28;20044;-75
2020/12/01 03:50:32;;;;;;;3.60;0.60;;;;;;;8.08;55.81;100640.16;5039333;28;20037;-76
2020/12/01 03:52:58;;;;;;;9.27;1.10;;;;;;;8.05;55.53;100642.69;5030042;28;20160;-76
2020/12/01 03:55:24;;;;;;;6.80;0.90;;;;;;;7.60;56.65;100634.91;5042235;28;20132;-76
2020/12/01 03:57:51;;;;;;;5.30;0.80;;;;;;;7.74;56.36;100646.44;5025422;28;20038;-76
2020/12/01 04:00:20;;;;;;;11.57;1.38;;;;;;;7.82;55.96;100650.94;5026657;28;20065;-76
2020/12/01 04:02:47;;;;;;;4.82;1.08;;;;;;;8.31;54.54;100646.66;5030032;28;20056;-76
2020/12/01 04:05:14;;;;;;;6.38;1.10;;;;;;;7.94;55.88;100654.63;5045882;28;20734;-77
2020/12/01 04:07:39;;;;;;;14.23;1.40;;;;;;;7.76;55.78;100648.25;5028020;28;20727;-76
2020/12/01 04:10:05;;;;;;;5.55;1.10;;;;;;;7.76;55.56;100655.19;5040163;28;20034;-76
2020/12/01 04:12:32;;;;;;;6.65;0.90;;;;;;;8.02;55.49;100664.31;5058254;28;20056;-76
2020/12/01 04:14:57;;;;;;;9.57;1.20;;;;;;;7.84;55.67;100664.88;5052336;28;20040;-75
2020/12/01 04:17:23;;;;;;;5.45;1.40;;;;;;;7.74;55.84;100668.13;5032283;28;20460;-76
2020/12/01 04:19:49;;;;;;;11.27;1.35;;;;;;;7.50;56.53;100672.84;5041852;28;20094;-75
2020/12/01 04:22:16;;;;;;;9.50;1.05;;;;;;;7.61;56.53;100671.34;5048809;28;20098;-76
2020/12/01 04:24:42;;;;;;;9.82;1.02;;;;;;;7.39;56.79;100677.81;5031721;28;20045;-76
2020/12/01 04:27:11;;;;;;;2.40;0.88;;;;;;;7.37;57.58;100678.66;5029997;28;20063;-75
2020/12/01 04:29:37;;;;;;;6.75;1.20;;;;;;;7.10;57.98;100672.88;5031619;28;20066;-76
2020/12/01 04:32:04;;;;;;;7.40;0.85;;;;;;;6.95;58.50;100673.41;5047127;28;20405;-76
2020/12/01 04:34:30;;;;;;;9.95;1.10;;;;;;;6.73;59.65;100668.53;5031748;28;20032;-75
2020/12/01 04:36:56;;;;;;;4.85;1.08;;;;;;;7.10;58.22;100670.28;5047501;28;20039;-75
2020/12/01 04:39:21;;;;;;;7.95;1.10;;;;;;;6.89;59.10;100678.44;5025979;28;20447;-76
2020/12/01 04:41:47;;;;;;;7.95;0.98;;;;;;;6.89;59.12;100671.53;5046756;28;20123;-76
2020/12/01 04:44:31;;;;;;;4.97;1.00;;;;;;;6.79;59.13;100676.47;5034209;28;20028;-77
2020/12/01 04:47:00;;;;;;;7.93;1.20;;;;;;;6.88;59.18;100672.38;5025844;28;20028;-76
2020/12/01 04:49:34;;;;;;;8.57;1.00;;;;;;;6.79;59.51;100676.47;5025203;28;20029;-77
2020/12/01 04:52:23;;;;;;;6.65;0.90;;;;;;;7.04;58.76;100684.00;5054280;28;20047;-76
2020/12/01 04:55:01;;;;;;;10.18;0.98;;;;;;;6.54;59.69;100677.59;5037218;28;20086;-76
2020/12/01 04:57:45;;;;;;;5.95;1.08;;;;;;;6.70;59.41;100677.13;5028794;28;20028;-76
2020/12/01 05:00:58;;;;;;;6.07;1.00;;;;;;;6.72;59.77;100685.81;5029755;28;20036;-76
2020/12/01 05:03:50;;;;;;;11.90;1.15;;;;;;;6.18;61.39;100693.13;4988039;28;20040;-76
2020/12/01 05:06:29;;;;;;;;;;;;;;;6.35;61.12;100693.56;4969931;28;20035;-77
2020/12/01 05:09:01;;;;;;;7.30;1.20;;;;;;;5.90;62.14;100698.44;4966874;28;19914;-77
2020/12/01 05:11:36;;;;;;;8.27;1.15;;;;;;;6.34;60.94;100691.78;4963126;28;20035;-76
2020/12/01 05:14:12;;;;;;;10.73;1.10;;;;;;;6.04;62.08;100689.31;4949925;28;20133;-76
2020/12/01 05:16:54;;;;;;;4.88;1.05;;;;;;;6.18;61.29;100680.16;4982284;28;20093;-77
2020/12/01 05:19:40;;;;;;;6.57;1.30;;;;;;;5.92;62.59;100684.66;4950249;28;20486;-77
2020/12/01 05:22:07;;;;;;;5.50;0.88;;;;;;;6.23;61.56;100690.66;4980502;28;20076;-77
2020/12/01 05:24:37;;;;;;;10.10;1.27;;;;;;;6.34;60.62;100691.78;4968487;28;20074;-77
2020/12/01 05:27:03;;;;;;;5.38;0.88;;;;;;;6.20;61.61;100698.34;4955115;28;20054;-77
2020/12/01 05:29:29;;;;;;;5.80;1.00;;;;;;;6.16;61.47;100696.50;4980680;28;20039;-76
2020/12/01 05:31:55;;;;;;;15.07;1.50;;;;;;;6.35;60.93;100698.75;4964698;28;20042;-77
2020/12/01 05:34:21;;;;;;;6.72;0.90;;;;;;;6.38;60.83;100710.06;4952314;28;20034;-76
2020/12/01 05:36:49;;;;;;;5.70;1.13;;;;;;;6.61;59.60;100710.69;4968842;28;20046;-77
2020/12/01 05:39:34;;;;;;;12.43;1.17;;;;;;;6.30;60.61;100711.59;4949032;28;20030;-76
2020/12/01 05:42:12;;;;;;;7.25;1.15;;;;;;;6.83;59.16;100707.75;4956142;28;20126;-77
2020/12/01 05:44:38;;;;;;;9.65;1.13;;;;;;;6.05;61.34;100724.75;5029603;28;20036;-78
2020/12/01 05:47:16;;;;;;;11.00;1.08;;;;;;;6.71;59.50;100720.44;5045287;28;20112;-77
2020/12/01 05:50:20;;;;;;;6.85;0.95;;;;;;;6.63;59.65;100719.38;5029027;28;20035;-77
2020/12/01 05:52:53;;;;;;;10.05;1.50;;;;;;;6.71;59.13;100728.25;5048223;28;20032;-77
2020/12/01 05:55:23;;;;;;;10.63;2.10;;;;;;;6.36;59.97;100731.66;5027159;28;20029;-77
2020/12/01 05:58:08;;;;;;;11.73;1.20;;;;;;;6.55;59.86;100731.28;5053327;28;20036;-77
2020/12/01 06:00:37;;;;;;;10.38;1.55;;;;;;;6.31;60.43;100725.47;5029912;28;20136;-77
2020/12/01 06:03:20;;;;;;;10.95;3.13;;;;;;;6.25;60.97;100728.78;5038849;28;20078;-77
2020/12/01 06:05:50;;;;;;;12.40;2.70;;;;;;;6.10;60.94;100721.47;5047758;28;20059;-77
2020/12/01 06:08:15;;;;;;;7.65;1.92;;;;;;;5.99;61.42;100725.50;5028693;28;20367;-77
2020/12/01 06:10:45;;;;;;;13.35;1.88;;;;;;;5.99;61.87;100728.09;5043000;28;20123;-77
2020/12/01 06:13:32;;;;;;;3.03;0.90;;;;;;;6.25;61.10;100728.78;5047076;28;20328;-77
2020/12/01 06:16:08;;;;;;;7.88;1.30;;;;;;;5.85;62.10;100721.59;5059938;28;20531;-77
2020/12/01 06:18:49;;;;;;;5.15;1.10;;;;;;;6.04;61.47;100728.22;5037360;28;20348;-77
2020/12/01 06:21:24;;;;;;;8.13;1.45;;;;;;;6.16;61.50;100732.84;5024940;28;20052;-76
2020/12/01 06:24:11;;;;;;;6.47;1.13;;;;;;;6.16;61.25;100736.31;5042814;28;20086;-76
2020/12/01 06:27:03;;;;;;;6.88;0.93;;;;;;;5.86;61.69;100744.09;5046200;28;20039;-76
2020/12/01 06:29:32;;;;;;;;;;;;;;;6.33;60.90;100750.59;5040886;28;20058;-75
2020/12/01 06:32:31;;;;;;;8.02;1.10;;;;;;;6.46;60.11;100759.59;5048186;28;19983;-77
2020/12/01 06:35:34;;;;;;;5.72;0.98;;;;;;;5.98;61.37;100753.97;5051091;28;20353;-77
2020/12/01 06:38:13;;;;;;;11.23;1.67;;;;;;;6.11;61.02;100751.75;5058315;28;20036;-76
2020/12/01 06:40:49;;;;;;;5.57;1.10;;;;;;;5.96;61.36;100753.03;5048881;28;20040;-77
2020/12/01 06:43:47;;;;;;;8.00;1.23;;;;;;;6.65;59.50;100756.66;5031950;28;20025;-77
2020/12/01 06:46:38;;;;;;;11.65;1.10;;;;;;;6.46;60.03;100764.81;4971368;28;20085;-77
2020/12/01 06:49:10;;;;;;;11.82;2.08;;;;;;;6.19;60.82;100769.25;4985385;28;20093;-76
2020/12/01 06:51:37;;;;;;;10.70;2.10;;;;;;;6.19;60.61;100780.50;4985889;28;20134;-77
2020/12/01 06:54:10;;;;;;;6.70;1.08;;;;;;;6.31;61.04;100783.44;4957510;28;20050;-76
2020/12/01 06:56:36;;;;;;;8.40;1.35;;;;;;;5.85;61.85;100782.97;4967333;28;20053;-77
2020/12/01 06:59:11;;;;;;;7.05;1.40;;;;;;;6.40;59.99;100781.09;4988026;28;20066;-77
2020/12/01 07:01:38;;;;;;;6.82;1.50;;;;;;;6.05;61.58;100780.13;4960571;28;20100;-78
2020/12/01 07:04:12;;;;;;;11.40;1.23;;;;;;;6.60;59.71;100786.81;4973237;28;20073;-77
2020/12/01 07:06:58;;;;;;;9.43;1.00;;;;;;;6.55;59.74;100789.28;4983860;28;20062;-77
2020/12/01 07:09:42;;;;;;;5.05;0.90;;;;;;;6.50;60.13;100788.28;4972568;28;20030;-77
2020/12/01 07:12:08;;;;;;;11.63;1.17;;;;;;;6.72;59.62;100797.50;4987480;28;20126;-78
2020/12/01 07:14:51;;;;;;;8.15;1.38;;;;;;;6.48;59.86;100799.44;4974462;28;20118;-77
2020/12/01 07:17:20;;;;;;;9.93;1.20;;;;;;;6.53;59.32;100808.22;4973481;28;20149;-77
2020/12/01 07:20:00;;;;;;;10.93;1.40;;;;;;;6.30;60.45;100806.75;4968060;28;20034;-76
2020/12/01 07:22:41;;;;;;;12.27;1.55;;;;;;;6.81;59.20;100808.09;4983153;28;20049;-77
2020/12/01 07:25:10;;;;;;;14.15;1.25;;;;;;;6.61;59.30;100813.66;5053273;28;20064;-76
2020/12/01 07:28:18;;;;;;;10.32;1.42;;;;;;;6.75;59.26;100810.56;5033491;28;20486;-79
2020/12/01 07:30:59;;;;;;;9.65;1.73;;;;;;;6.59;59.53;100816.19;4999068;28;20049;-77
2020/12/01 07:33:32;;;;;;;5.00;1.33;;;;;;;6.70;59.26;100822.56;4978275;28;20076;-78
2020/12/01 07:36:26;;;;;;;4.25;1.27;;;;;;;6.87;58.63;100821.25;5008516;28;20119;-76
2020/12/01 07:39:17;;;;;;;6.45;1.05;;;;;;;6.72;59.29;100818.25;4970765;28;20038;-77
2020/12/01 07:41:52;;;;;;;8.40;1.30;;;;;;;6.86;58.11;100831.59;4991630;28;20097;-78
2020/12/01 07:44:21;;;;;;;10.32;2.10;;;;;;;6.69;59.26;100828.59;4990805;28;20105;-77
2020/12/01 07:47:05;;;;;;;8.90;2.53;;;;;;;6.42;60.13;100833.94;5012868;28;20558;-77
2020/12/01 07:49:34;;;;;;;10.35;2.22;;;;;;;6.29;60.05;100828.31;4987336;28;20026;-78
2020/12/01 07:52:07;;;;;;;10.85;1.30;;;;;;;6.66;58.88;100838.91;5005441;28;20064;-76
2020/12/01 07:54:37;;;;;;;10.05;1.42;;;;;;;6.55;59.12;100837.72;5008724;28;20092;-75
2020/12/01 07:57:16;;;;;;;5.88;1.02;;;;;;;6.54;59.20;100842.03;4995299;28;20118;-77
2020/12/01 07:59:44;;;;;;;14.30;1.40;;;;;;;6.70;58.79;100853.72;4987757;28;20193;-77
2020/12/01 08:02:13;;;;;;;5.70;1.48;;;;;;;6.84;58.61;100854.97;4990439;28;20030;-76
2020/12/01 08:04:38;;;;;;;8.93;1.80;;;;;;;6.79;58.52;100860.88;4987149;28;20088;-76
2020/12/01 08:07:06;;;;;;;5.70;1.30;;;;;;;6.92;58.27;100858.63;5047066;28;20048;-78
2020/12/01 08:09:32;;;;;;;8.25;1.20;;;;;;;7.19;57.47;100861.06;5025820;28;20043;-78
2020/12/01 08:12:05;;;;;;;9.15;1.45;;;;;;;7.22;57.34;100868.91;5033537;28;20032;-76
2020/12/01 08:14:30;;;;;;;;;;;;;;;7.19;57.44;100868.84;5049519;28;20021;-76
2020/12/01 08:17:09;;;;;;;12.50;1.52;;;;;;;7.08;57.81;100867.69;5030988;28;19932;-78
2020/12/01 08:19:35;;;;;;;9.73;1.60;;;;;;;7.19;57.68;100868.84;5030110;28;20028;-77
2020/12/01 08:22:04;;;;;;;13.55;1.60;;;;;;;6.71;58.98;100860.69;5032132;28;20032;-76
2020/12/01 08:24:34;;;;;;;9.30;1.90;;;;;;;7.27;57.42;100864.72;5036492;28;20036;-75
2020/12/01 08:27:18;;;;;;;5.93;1.15;;;;;;;6.81;58.90;100867.84;5028391;28;20016;-78
2020/12/01 08:29:46;;;;;;;7.80;1.00;;;;;;;6.85;58.71;100864.50;5048612;28;20056;-77
2020/12/01 08:32:23;;;;;;;9.55;1.25;;;;;;;7.31;57.50;100861.34;5037495;28;20384;-77
2020/12/01 08:34:54;;;;;;;13.27;1.42;;;;;;;7.44;56.52;100865.09;5052627;28;20041;-75
2020/12/01 08:37:34;;;;;;;3.17;1.10;;;;;;;7.17;57.79;100875.72;5064799;28;20040;-75
2020/12/01 08:40:14;;;;;;;5.38;1.08;;;;;;;7.61;56.36;100869.00;5042808;28;20045;-75
2020/12/01 08:42:57;;;;;;;4.15;1.33;;;;;;;6.98;57.62;100871.78;5031087;28;20024;-77
2020/12/01 08:45:36;;;;;;;6.10;0.98;;;;;;;7.18;57.55;100874.00;5034771;28;20158;-76
2020/12/01 08:48:05;;;;;;;8.38;1.17;;;;;;;6.87;58.48;100870.59;5034045;28;20112;-76
2020/12/01 08:50:38;;;;;;;10.00;1.02;;;;;;;7.70;55.61;100870.91;5032547;28;20050;-76
2020/12/01 08:53:06;;;;;;;10.52;1.98;;;;;;;7.44;56.14;100876.38;5047300;28;20041;-77
2020/12/01 08:55:42;;;;;;;5.47;1.17;;;;;;;7.83;55.38;100867.75;5032870;28;20036;-74
2020/12/01 08:58:43;;;;;;;5.63;0.93;;;;;;;7.23;56.75;100873.28;5041358;28;20039;-77
2020/12/01 09:01:46;;;;;;;10.85;1.20;;;;;;;8.04;54.64;100868.22;5050090;28;20174;-77
2020/12/01 09:04:29;;;;;;;6.65;1.20;;;;;;;8.67;53.68;100866.09;5049406;28;20047;-78
2020/12/01 09:07:09;;;;;;;8.02;1.00;;;;;;;9.96;50.69;100867.31;5049374;28;20063;-79
2020/12/01 09:09:35;;;;;;;7.07;1.17;;;;;;;10.94;47.48;100865.00;5062708;28;20165;-79
2020/12/01 09:12:40;;;;;;;5.45;1.10;;;;;;;11.50;45.78;100868.16;5021245;28;20154;-77
2020/12/01 09:15:40;;;;;;;3.75;0.95;;;;;;;12.82;42.69;100865.31;5041702;28;20451;-75
2020/12/01 09:23:36;;;;;;;6.60;1.40;;;;;;;15.12;37.24;100874.44;5047315;28;20111;-75
2020/12/01 09:26:19;;;;;;;9.10;1.27;;;;;;;15.51;36.35;100873.28;5048741;28;20029;-76
2020/12/01 09:28:51;;;;;;;6.90;1.20;;;;;;;15.50;35.60;100866.25;5046341;28;20028;-74
2020/12/01 09:31:19;;;;;;;5.65;1.10;;;;;;;14.12;38.47;100865.28;5031984;28;20515;-77
2020/12/01 09:33:44;;;;;;;9.93;1.63;;;;;;;14.89;37.45;100865.84;5036200;28;20033;-74
2020/12/01 09:36:19;;;;;;;7.03;1.83;;;;;;;14.77;39.08;100870.28;5046748;28;20102;-73
2020/12/01 09:38:45;;;;;;;9.25;1.50;;;;;;;15.51;36.29;100868.91;5063296;28;20040;-74
2020/12/01 09:41:19;;;;;;;3.95;1.42;;;;;;;16.21;35.13;100880.50;5052579;28;20028;-74
2020/12/01 09:46:28;;;;;;;7.00;1.42;;;;;;;15.44;36.46;100874.22;5061227;28;20078;-74
2020/12/01 09:48:55;;;;;;;3.97;1.33;;;;;;;15.81;35.64;100878.28;5041615;28;20427;-75
2020/12/01 09:51:21;;;;;;;6.63;1.30;;;;;;;14.71;37.71;100880.84;5043019;28;20094;-74
2020/12/01 09:59:33;;;;;;;3.83;1.00;;;;;;;15.91;35.10;100886.97;5040953;28;20033;-72
2020/12/01 10:10:13;;;;;;;8.80;1.20;;;;;;;15.90;35.29;100894.00;5019346;28;20625;-75
2020/12/01 10:13:08;;;;;;;3.63;0.88;;;;;;;15.55;35.81;100889.06;5041645;28;20029;-76
2020/12/01 10:26:47;;;;;;;5.55;1.38;;;;;;;16.95;33.26;100891.00;5035936;28;20127;-76
2020/12/01 10:37:36;;;;;;;4.50;1.25;;;;;;;17.46;31.66;100890.22;4931401;29;20044;-75
2020/12/01 10:40:03;;;;;;;5.00;1.55;;;;;;;17.17;32.58;100888.03;4912308;29;20098;-77
2020/12/01 10:42:29;;;;;;;3.90;1.80;;;;;;;16.97;33.13;100890.97;4929927;29;20082;-76
2020/12/01 10:44:55;;;;;;;8.60;1.25;;;;;;;16.70;33.36;100894.84;4928255;29;20075;-76
2020/12/01 10:47:22;;;;;;;7.22;1.20;;;;;;;17.62;31.19;100892.59;4931927;29;20412;-76
2020/12/01 10:49:48;;;;;;;7.10;1.30;;;;;;;17.84;30.99;100885.19;4927889;29;20126;-76
2020/12/01 10:52:14;;;;;;;6.03;1.13;;;;;;;18.09;30.74;100894.38;4931230;29;20039;-76
2020/12/01 10:54:40;;;;;;;5.32;1.30;;;;;;;17.54;31.51;100889.19;4930130;29;20531;-76
2020/12/01 10:57:05;;;;;;;6.28;1.75;;;;;;;15.41;36.20;100880.38;4924810;29;20068;-76
2020/12/01 10:59:31;;;;;;;6.75;1.40;;;;;;;17.09;33.53;100887.25;4932159;29;20061;-77
2020/12/01 11:01:57;;;;;;;5.32;1.30;;;;;;;17.81;31.01;100887.88;4928829;29;20571;-75
2020/12/01 11:04:23;;;;;;;4.90;1.30;;;;;;;17.83;31.89;100883.44;4930200;29;20064;-75
2020/12/01 11:06:53;;;;;;;3.75;1.42;;;;;;;18.97;29.71;100882.00;4929322;29;20066;-75
2020/12/01 11:09:18;;;;;;;8.15;1.20;;;;;;;18.80;29.73;100870.88;5037896;28;20048;-75
2020/12/01 11:11:47;;;;;;;6.68;1.48;;;;;;;19.46;28.79;100867.59;5056846;28;20566;-74
2020/12/01 11:14:13;;;;;;;7.43;1.23;;;;;;;19.68;28.72;100867.91;5030013;28;20043;-76
2020/12/01 11:16:40;;;;;;;5.38;1.40;;;;;;;20.71;26.94;100875.66;5026291;28;20128;-76
2020/12/01 11:19:06;;;;;;;7.55;1.42;;;;;;;20.40;27.28;100875.69;5040206;28;20549;-76
2020/12/01 11:21:36;;;;;;;4.53;1.17;;;;;;;20.75;26.27;100867.56;5032960;28;20040;-76
2020/12/01 11:24:03;;;;;;;8.97;1.50;;;;;;;19.44;28.60;100869.41;5031126;28;20046;-76
2020/12/01 11:26:29;;;;;;;4.28;1.27;;;;;;;20.30;27.07;100864.44;5042980;28;20401;-76
2020/12/01 11:28:55;;;;;;;6.45;1.20;;;;;;;19.87;27.34;100864.75;5044649;28;20118;-76
2020/12/01 11:31:22;;;;;;;4.82;1.40;;;;;;;19.29;28.44;100867.09;5048674;28;20041;-76
2020/12/01 11:34:17;;;;;;;9.18;1.35;;;;;;;19.15;28.37;100863.00;5047640;28;20689;-76
2020/12/01 11:36:43;;;;;;;4.43;1.00;;;;;;;16.75;32.03;100860.47;4990385;28;20042;-77
2020/12/01 11:39:12;;;;;;;7.95;1.17;;;;;;;17.78;31.01;100858.84;4988656;28;20452;-76
2020/12/01 11:41:39;;;;;;;5.15;1.52;;;;;;;18.18;29.88;100867.75;4971377;28;20105;-76
2020/12/01 11:44:08;;;;;;;4.68;1.30;;;;;;;18.13;29.88;100872.25;4985800;28;20119;-76
2020/12/01 11:46:34;;;;;;;8.35;1.50;;;;;;;18.55;29.42;100880.28;4958035;28;20530;-77
2020/12/01 11:49:01;;;;;;;5.50;1.02;;;;;;;17.93;30.50;100874.44;4966927;28;20041;-76
2020/12/01 11:51:30;;;;;;;9.05;1.50;;;;;;;18.73;30.15;100874.59;4971269;28;20036;-76
2020/12/01 11:53:56;;;;;;;7.30;2.55;;;;;;;18.91;29.51;100876.81;4976111;28;20050;-75
2020/12/01 11:56:22;;;;;;;7.22;1.60;;;;;;;17.70;30.81;100873.97;4983264;28;20050;-75
2020/12/01 11:58:48;;;;;;;7.65;1.73;;;;;;;17.24;31.86;100877.34;4981386;28;20835;-75
2020/12/01 12:01:15;;;;;;;4.00;1.45;;;;;;;16.46;33.48;100882.81;4971902;28;20078;-77
2020/12/01 12:03:44;;;;;;;3.05;1.05;;;;;;;15.13;35.36;100886.72;4983755;28;21388;-76
2020/12/01 12:06:11;;;;;;;7.20;1.23;;;;;;;15.40;35.96;100878.59;4970304;28;20043;-75
2020/12/01 12:08:38;;;;;;;7.65;1.10;;;;;;;15.21;36.25;100891.03;4984923;28;20173;-75
2020/12/01 12:11:05;;;;;;;7.05;1.75;;;;;;;14.47;36.70;100872.19;4986617;28;20328;-75
2020/12/01 12:13:30;;;;;;;3.90;1.05;;;;;;;14.68;37.00;100870.31;5027024;28;20110;-76
2020/12/01 12:15:56;;;;;;;6.88;1.60;;;;;;;13.68;39.01;100868.00;5047850;28;20061;-75
2020/12/01 12:18:22;;;;;;;5.05;1.52;;;;;;;14.08;38.95;100862.69;5041127;28;20029;-77
2020/12/01 12:20:48;;;;;;;10.52;1.17;;;;;;;13.68;39.83;100873.25;5030629;28;20131;-76
2020/12/01 12:23:14;;;;;;;4.05;1.40;;;;;;;14.03;39.39;100867.06;5049109;28;21479;-77
2020/12/01 12:25:41;;;;;;;12.32;1.70;;;;;;;13.67;40.36;100862.78;5014448;28;20094;-76
2020/12/01 12:28:07;;;;;;;10.30;2.47;;;;;;;13.17;41.29;100850.53;4987943;28;20042;-76
2020/12/01 12:30:33;;;;;;;10.40;2.17;;;;;;;12.85;42.05;100854.84;4960971;28;20183;-76
2020/12/01 12:32:59;;;;;;;8.10;2.05;;;;;;;12.67;42.51;100855.66;5011716;28;20132;-76